createdAt,value
2023-03-29T00:00:44.185Z,49.95
2023-03-29T00:01:44.021Z,49.63
2023-03-29T00:02:44.338Z,50.11
2023-03-29T00:03:44.405Z,49.95
2023-03-29T00:04:44.199Z,50.27
2023-03-29T00:05:44.086Z,54.46
2023-03-29T00:06:43.997Z,49.95
2023-03-29T00:07:44.045Z,49.95
2023-03-29T00:08:43.965Z,50.11
2023-03-29T00:09:44.120Z,50.11
2023-03-29T00:10:43.872Z,50.11
2023-03-29T00:11:44.034Z,50.11
2023-03-29T00:12:43.945Z,50.11
2023-03-29T00:13:44.033Z,50.11
2023-03-29T00:14:43.965Z,49.95
2023-03-29T00:15:44.083Z,50.11
2023-03-29T00:16:43.200Z,50.11
2023-03-29T00:17:44.120Z,50.27
2023-03-29T00:18:43.979Z,50.11
2023-03-29T00:19:43.987Z,49.95
2023-03-29T00:20:43.205Z,49.95
2023-03-29T00:21:43.774Z,50.27
2023-03-29T00:22:44.542Z,49.79
2023-03-29T00:23:44.771Z,49.95
2023-03-29T00:24:43.874Z,49.95
2023-03-29T00:25:43.696Z,50.11
2023-03-29T00:26:43.910Z,50.11
2023-03-29T00:27:43.784Z,50.11
2023-03-29T00:28:43.894Z,49.79
2023-03-29T00:29:43.827Z,49.95
2023-03-29T00:30:43.928Z,49.79
2023-03-29T00:31:43.828Z,49.95
2023-03-29T00:32:43.909Z,50.11
2023-03-29T00:33:43.736Z,50.11
2023-03-29T00:34:43.886Z,50.27
2023-03-29T00:35:43.825Z,50.27
2023-03-29T00:36:43.798Z,50.43
2023-03-29T00:37:43.824Z,50.43
2023-03-29T00:38:43.621Z,50.27
2023-03-29T00:39:43.886Z,50.76
2023-03-29T00:40:43.545Z,50.60
2023-03-29T00:41:43.905Z,50.92
2023-03-29T00:42:43.637Z,50.92
2023-03-29T00:43:43.756Z,50.76
2023-03-29T00:44:43.595Z,50.76
2023-03-29T00:45:43.709Z,50.92
2023-03-29T00:46:43.724Z,51.08
2023-03-29T00:47:43.803Z,51.08
2023-03-29T00:48:43.615Z,50.92
2023-03-29T00:49:43.695Z,50.76
2023-03-29T00:50:43.647Z,50.92
2023-03-29T00:51:43.665Z,50.76
2023-03-29T00:52:43.576Z,51.08
2023-03-29T00:53:43.454Z,50.92
2023-03-29T00:54:43.749Z,51.08
2023-03-29T00:55:43.447Z,51.08
2023-03-29T00:56:43.722Z,50.92
2023-03-29T00:57:43.432Z,50.60
2023-03-29T00:58:43.685Z,51.08
2023-03-29T00:59:43.598Z,51.08
2023-03-29T01:00:43.578Z,50.92
2023-03-29T01:01:43.713Z,50.92
2023-03-29T01:02:43.613Z,51.72
2023-03-29T01:03:43.712Z,50.92
2023-03-29T01:04:43.512Z,51.24
2023-03-29T01:05:43.522Z,51.08
2023-03-29T01:06:43.600Z,51.24
2023-03-29T01:07:43.430Z,51.40
2023-03-29T01:08:43.478Z,51.24
2023-03-29T01:09:43.602Z,51.08
2023-03-29T01:10:43.251Z,50.27
2023-03-29T01:11:43.551Z,51.24
2023-03-29T01:12:43.259Z,51.24
2023-03-29T01:13:43.438Z,51.40
2023-03-29T01:14:43.258Z,50.11
2023-03-29T01:15:43.410Z,51.08
2023-03-29T01:16:43.409Z,51.08
2023-03-29T01:17:43.428Z,51.24
2023-03-29T01:18:43.372Z,51.08
2023-03-29T01:19:43.426Z,51.40
2023-03-29T01:20:43.250Z,51.08
2023-03-29T01:21:42.608Z,50.92
2023-03-29T01:22:43.371Z,51.24
2023-03-29T01:23:43.359Z,50.60
2023-03-29T01:24:43.349Z,51.24
2023-03-29T01:25:43.078Z,51.08
2023-03-29T01:26:43.376Z,50.76
2023-03-29T01:27:43.150Z,51.08
2023-03-29T01:28:43.343Z,51.40
2023-03-29T01:29:43.099Z,51.40
2023-03-29T01:30:43.359Z,51.56
2023-03-29T01:31:43.134Z,51.08
2023-03-29T01:32:43.328Z,51.56
2023-03-29T01:33:42.444Z,51.24
2023-03-29T01:34:43.344Z,51.56
2023-03-29T01:35:43.186Z,51.56
2023-03-29T01:36:43.336Z,51.24
2023-03-29T01:37:44.129Z,51.24
2023-03-29T01:38:43.231Z,51.40
2023-03-29T01:39:43.239Z,52.05
2023-03-29T01:40:43.182Z,51.24
2023-03-29T01:41:43.129Z,51.56
2023-03-29T01:42:43.079Z,51.72
2023-03-29T01:43:43.141Z,51.24
2023-03-29T01:44:42.970Z,51.72
2023-03-29T01:45:43.209Z,52.05
2023-03-29T01:46:42.970Z,51.40
2023-03-29T01:47:43.145Z,51.40
2023-03-29T01:48:43.111Z,51.56
2023-03-29T01:49:43.168Z,51.40
2023-03-29T01:50:43.088Z,51.56
2023-03-29T01:51:43.319Z,51.24
2023-03-29T01:52:43.034Z,51.56
2023-03-29T01:53:43.047Z,51.72
2023-03-29T01:54:42.987Z,51.72
2023-03-29T01:55:43.010Z,51.56
2023-03-29T01:56:42.997Z,51.72
2023-03-29T01:57:42.739Z,51.72
2023-03-29T01:58:42.941Z,51.56
2023-03-29T01:59:42.789Z,51.72
2023-03-29T02:00:43.037Z,51.72
2023-03-29T02:01:42.844Z,51.40
2023-03-29T02:02:43.064Z,51.40
2023-03-29T02:03:42.881Z,51.24
2023-03-29T02:04:42.917Z,51.72
2023-03-29T02:05:42.826Z,51.56
2023-03-29T02:06:43.005Z,51.40
2023-03-29T02:07:42.762Z,51.72
2023-03-29T02:08:43.006Z,51.40
2023-03-29T02:09:42.864Z,51.56
2023-03-29T02:10:42.838Z,51.88
2023-03-29T02:11:42.799Z,52.53
2023-03-29T02:12:42.828Z,52.53
2023-03-29T02:13:42.959Z,51.88
2023-03-29T02:14:42.863Z,52.05
2023-03-29T02:15:42.881Z,51.40
2023-03-29T02:16:42.576Z,51.56
2023-03-29T02:17:42.909Z,51.40
2023-03-29T02:18:42.738Z,51.40
2023-03-29T02:19:42.809Z,51.56
2023-03-29T02:20:42.699Z,51.56
2023-03-29T02:21:42.769Z,51.24
2023-03-29T02:22:42.743Z,51.24
2023-03-29T02:23:42.769Z,51.72
2023-03-29T02:24:42.709Z,51.24
2023-03-29T02:25:42.759Z,54.14
2023-03-29T02:26:42.742Z,51.40
2023-03-29T02:27:42.731Z,51.40
2023-03-29T02:28:42.737Z,51.40
2023-03-29T02:29:42.741Z,51.24
2023-03-29T02:30:42.726Z,51.56
2023-03-29T02:31:42.470Z,51.40
2023-03-29T02:32:42.754Z,51.72
2023-03-29T02:33:42.468Z,52.21
2023-03-29T02:34:42.743Z,51.56
2023-03-29T02:35:42.565Z,51.56
2023-03-29T02:36:42.596Z,52.53
2023-03-29T02:37:42.479Z,51.56
2023-03-29T02:38:42.618Z,51.56
2023-03-29T02:39:42.487Z,51.56
2023-03-29T02:40:42.597Z,51.24
2023-03-29T02:41:42.577Z,51.56
2023-03-29T02:42:42.528Z,51.72
2023-03-29T02:43:42.442Z,54.46
2023-03-29T02:44:42.553Z,51.72
2023-03-29T02:45:42.487Z,51.72
2023-03-29T02:46:42.415Z,51.56
2023-03-29T02:47:42.629Z,51.24
2023-03-29T02:48:42.384Z,51.40
2023-03-29T02:49:42.628Z,51.56
2023-03-29T02:50:42.555Z,51.72
2023-03-29T02:51:42.525Z,51.08
2023-03-29T02:52:42.372Z,51.40
2023-03-29T02:53:42.582Z,52.53
2023-03-29T02:54:42.340Z,51.56
2023-03-29T02:55:42.466Z,51.88
2023-03-29T02:56:42.346Z,51.88
2023-03-29T02:57:42.428Z,53.33
2023-03-29T02:58:42.350Z,51.56
2023-03-29T02:59:42.490Z,51.72
2023-03-29T03:00:42.310Z,51.56
2023-03-29T03:01:42.408Z,51.72
2023-03-29T03:02:42.400Z,51.72
2023-03-29T03:03:42.349Z,51.88
2023-03-29T03:04:43.350Z,51.88
2023-03-29T03:05:42.332Z,51.88
2023-03-29T03:06:42.328Z,51.88
2023-03-29T03:07:42.122Z,53.82
2023-03-29T03:08:42.321Z,52.05
2023-03-29T03:09:41.471Z,52.37
2023-03-29T03:10:42.501Z,52.37
2023-03-29T03:11:42.122Z,51.56
2023-03-29T03:12:42.340Z,50.60
2023-03-29T03:13:42.230Z,53.82
2023-03-29T03:14:42.328Z,51.88
2023-03-29T03:15:42.294Z,51.56
2023-03-29T03:16:42.503Z,54.79
2023-03-29T03:17:42.127Z,51.72
2023-03-29T03:18:42.042Z,51.88
2023-03-29T03:19:42.284Z,51.88
2023-03-29T03:20:42.710Z,51.72
2023-03-29T03:21:42.259Z,51.40
2023-03-29T03:22:42.120Z,51.56
2023-03-29T03:23:42.154Z,51.88
2023-03-29T03:24:42.054Z,51.40
2023-03-29T03:25:42.117Z,51.72
2023-03-29T03:26:42.106Z,51.40
2023-03-29T03:27:42.136Z,51.88
2023-03-29T03:28:42.003Z,51.88
2023-03-29T03:29:42.201Z,52.05
2023-03-29T03:30:41.986Z,51.88
2023-03-29T03:31:42.054Z,51.72
2023-03-29T03:32:42.051Z,53.50
2023-03-29T03:33:42.025Z,52.85
2023-03-29T03:34:42.189Z,51.72
2023-03-29T03:35:41.882Z,51.72
2023-03-29T03:36:42.046Z,51.88
2023-03-29T03:37:41.865Z,51.88
2023-03-29T03:38:41.974Z,51.56
2023-03-29T03:39:41.764Z,51.72
2023-03-29T03:40:41.980Z,52.05
2023-03-29T03:41:41.779Z,52.53
2023-03-29T03:42:42.027Z,52.05
2023-03-29T03:43:41.877Z,53.01
2023-03-29T03:44:42.025Z,52.53
2023-03-29T03:45:41.909Z,52.37
2023-03-29T03:46:41.913Z,53.50
2023-03-29T03:47:41.845Z,52.53
2023-03-29T03:48:41.924Z,54.30
2023-03-29T03:49:41.884Z,70.90
2023-03-29T03:50:41.865Z,58.65
2023-03-29T03:51:41.844Z,52.21
2023-03-29T03:52:41.752Z,55.27
2023-03-29T03:53:41.833Z,52.53
2023-03-29T03:54:41.787Z,56.72
2023-03-29T03:55:41.784Z,52.53
2023-03-29T03:56:41.741Z,52.85
2023-03-29T03:57:41.814Z,53.50
2023-03-29T03:58:41.645Z,52.21
2023-03-29T03:59:41.795Z,60.75
2023-03-29T04:00:40.954Z,53.50
2023-03-29T04:01:41.765Z,62.52
2023-03-29T04:02:41.850Z,54.46
2023-03-29T04:03:41.813Z,52.53
2023-03-29T04:04:41.737Z,54.14
2023-03-29T04:05:41.601Z,52.37
2023-03-29T04:06:43.673Z,51.88
2023-03-29T04:07:41.538Z,52.21
2023-03-29T04:08:41.743Z,57.52
2023-03-29T04:09:41.528Z,52.37
2023-03-29T04:10:41.695Z,52.37
2023-03-29T04:11:41.504Z,52.53
2023-03-29T04:12:41.654Z,52.21
2023-03-29T04:13:41.576Z,52.85
2023-03-29T04:14:41.670Z,52.21
2023-03-29T04:15:41.606Z,51.88
2023-03-29T04:16:41.633Z,58.01
2023-03-29T04:17:41.638Z,53.01
2023-03-29T04:18:41.924Z,52.69
2023-03-29T04:19:41.635Z,52.85
2023-03-29T04:20:41.665Z,51.08
2023-03-29T04:21:41.604Z,53.82
2023-03-29T04:22:41.348Z,53.50
2023-03-29T04:23:41.512Z,52.21
2023-03-29T04:24:41.363Z,53.50
2023-03-29T04:25:41.696Z,59.14
2023-03-29T04:26:41.384Z,53.17
2023-03-29T04:27:41.486Z,52.85
2023-03-29T04:28:41.383Z,52.69
2023-03-29T04:29:41.474Z,53.01
2023-03-29T04:30:41.378Z,52.21
2023-03-29T04:31:41.515Z,52.37
2023-03-29T04:32:41.437Z,52.37
2023-03-29T04:33:41.423Z,52.53
2023-03-29T04:34:41.359Z,53.17
2023-03-29T04:35:41.438Z,53.17
2023-03-29T04:36:41.401Z,52.37
2023-03-29T04:37:41.220Z,52.37
2023-03-29T04:38:41.378Z,52.05
2023-03-29T04:39:41.175Z,52.85
2023-03-29T04:40:41.388Z,52.05
2023-03-29T04:41:41.164Z,60.75
2023-03-29T04:42:41.469Z,52.05
2023-03-29T04:43:41.381Z,54.46
2023-03-29T04:44:41.373Z,55.91
2023-03-29T04:45:41.329Z,54.62
2023-03-29T04:46:41.379Z,55.27
2023-03-29T04:47:41.210Z,53.50
2023-03-29T04:48:41.343Z,53.98
2023-03-29T04:49:41.145Z,54.14
2023-03-29T04:50:41.250Z,55.43
2023-03-29T04:51:41.390Z,54.46
2023-03-29T04:52:41.275Z,56.40
2023-03-29T04:53:41.253Z,55.91
2023-03-29T04:54:41.000Z,56.07
2023-03-29T04:55:41.300Z,53.66
2023-03-29T04:56:41.057Z,58.33
2023-03-29T04:57:41.224Z,61.87
2023-03-29T04:58:41.080Z,64.29
2023-03-29T04:59:41.242Z,62.20
2023-03-29T05:00:41.119Z,55.75
2023-03-29T05:01:41.171Z,57.04
2023-03-29T05:02:41.054Z,60.26
2023-03-29T05:03:41.170Z,59.78
2023-03-29T05:04:41.133Z,66.55
2023-03-29T05:05:41.102Z,64.94
2023-03-29T05:06:41.159Z,64.78
2023-03-29T05:07:41.105Z,68.48
2023-03-29T05:08:41.054Z,64.78
2023-03-29T05:09:40.884Z,64.61
2023-03-29T05:10:41.012Z,68.64
2023-03-29T05:11:40.879Z,69.13
2023-03-29T05:12:41.110Z,63.16
2023-03-29T05:13:40.919Z,64.94
2023-03-29T05:14:41.121Z,66.87
2023-03-29T05:15:41.348Z,64.29
2023-03-29T05:16:41.078Z,70.09
2023-03-29T05:17:40.905Z,69.77
2023-03-29T05:18:41.166Z,68.16
2023-03-29T05:19:40.991Z,66.87
2023-03-29T05:20:40.990Z,62.52
2023-03-29T05:21:41.370Z,63.97
2023-03-29T05:22:41.651Z,65.58
2023-03-29T05:23:40.838Z,65.90
2023-03-29T05:24:40.893Z,66.39
2023-03-29T05:25:40.879Z,58.49
2023-03-29T05:26:40.757Z,67.68
2023-03-29T05:27:40.932Z,59.62
2023-03-29T05:28:40.927Z,58.81
2023-03-29T05:29:40.907Z,58.81
2023-03-29T05:30:40.728Z,63.00
2023-03-29T05:31:40.961Z,57.69
2023-03-29T05:32:40.886Z,54.95
2023-03-29T05:33:41.158Z,56.07
2023-03-29T05:34:40.763Z,54.95
2023-03-29T05:35:40.912Z,56.40
2023-03-29T05:36:40.740Z,60.59
2023-03-29T05:37:40.758Z,57.69
2023-03-29T05:38:40.737Z,55.91
2023-03-29T05:39:40.849Z,59.14
2023-03-29T05:40:40.756Z,56.07
2023-03-29T05:41:40.516Z,67.35
2023-03-29T05:42:40.778Z,60.42
2023-03-29T05:43:40.576Z,57.69
2023-03-29T05:44:40.721Z,54.62
2023-03-29T05:45:40.655Z,64.61
2023-03-29T05:46:40.725Z,55.11
2023-03-29T05:47:40.749Z,57.04
2023-03-29T05:48:40.776Z,64.45
2023-03-29T05:49:40.562Z,65.90
2023-03-29T05:50:40.744Z,58.01
2023-03-29T05:51:40.589Z,56.07
2023-03-29T05:52:39.814Z,59.62
2023-03-29T05:53:40.635Z,60.42
2023-03-29T05:54:39.876Z,72.35
2023-03-29T05:55:41.395Z,60.26
2023-03-29T05:56:40.675Z,59.14
2023-03-29T05:57:40.595Z,58.17
2023-03-29T05:58:40.398Z,61.39
2023-03-29T05:59:40.599Z,64.61
2023-03-29T06:00:40.488Z,58.81
2023-03-29T06:01:40.577Z,60.42
2023-03-29T06:02:40.613Z,55.75
2023-03-29T06:03:40.718Z,58.49
2023-03-29T06:04:40.503Z,57.52
2023-03-29T06:05:40.561Z,53.17
2023-03-29T06:06:40.377Z,57.85
2023-03-29T06:07:39.703Z,55.11
2023-03-29T06:08:40.418Z,56.56
2023-03-29T06:09:40.467Z,59.78
2023-03-29T06:10:39.685Z,62.20
2023-03-29T06:11:40.513Z,77.34
2023-03-29T06:12:40.009Z,58.65
2023-03-29T06:13:40.629Z,62.04
2023-03-29T06:14:40.437Z,56.72
2023-03-29T06:15:39.608Z,72.35
2023-03-29T06:16:42.582Z,57.85
2023-03-29T06:17:39.723Z,56.88
2023-03-29T06:18:41.484Z,73.96
2023-03-29T06:19:40.357Z,67.35
2023-03-29T06:20:41.445Z,66.06
2023-03-29T06:21:39.558Z,61.39
2023-03-29T06:22:40.376Z,59.30
2023-03-29T06:23:40.289Z,59.30
2023-03-29T06:24:41.361Z,58.01
2023-03-29T06:25:40.329Z,61.55
2023-03-29T06:26:40.467Z,61.39
2023-03-29T06:27:39.494Z,62.20
2023-03-29T06:28:41.500Z,63.81
2023-03-29T06:29:41.413Z,53.82
2023-03-29T06:30:39.479Z,56.72
2023-03-29T06:31:40.245Z,61.39
2023-03-29T06:32:39.521Z,78.79
2023-03-29T06:33:40.251Z,59.94
2023-03-29T06:34:40.211Z,62.84
2023-03-29T06:35:41.237Z,60.59
2023-03-29T06:36:40.080Z,59.78
2023-03-29T06:37:40.245Z,61.39
2023-03-29T06:38:40.123Z,62.36
2023-03-29T06:39:40.224Z,61.87
2023-03-29T06:40:39.383Z,59.14
2023-03-29T06:41:40.151Z,59.14
2023-03-29T06:42:40.090Z,59.78
2023-03-29T06:43:40.296Z,57.52
2023-03-29T06:44:40.142Z,73.64
2023-03-29T06:45:39.322Z,58.81
2023-03-29T06:46:40.259Z,57.85
2023-03-29T06:47:40.974Z,71.54
2023-03-29T06:48:39.306Z,64.13
2023-03-29T06:49:39.901Z,65.10
2023-03-29T06:50:40.093Z,62.52
2023-03-29T06:51:39.273Z,60.10
2023-03-29T06:52:40.140Z,60.75
2023-03-29T06:53:40.001Z,64.94
2023-03-29T06:54:40.054Z,64.94
2023-03-29T06:55:40.048Z,71.54
2023-03-29T06:56:40.013Z,64.45
2023-03-29T06:57:39.931Z,61.23
2023-03-29T06:58:40.037Z,63.65
2023-03-29T06:59:40.002Z,67.84
2023-03-29T07:00:40.066Z,58.81
2023-03-29T07:01:40.004Z,56.56
2023-03-29T07:02:39.791Z,61.71
2023-03-29T07:03:39.945Z,57.20
2023-03-29T07:04:39.151Z,58.33
2023-03-29T07:05:39.979Z,57.20
2023-03-29T07:06:39.151Z,54.14
2023-03-29T07:07:41.461Z,56.07
2023-03-29T07:08:40.662Z,55.43
2023-03-29T07:09:40.114Z,50.76
2023-03-29T07:10:39.082Z,59.14
2023-03-29T07:11:39.858Z,46.08
2023-03-29T07:12:39.151Z,44.79
2023-03-29T07:13:40.623Z,50.11
2023-03-29T07:14:40.021Z,46.25
2023-03-29T07:15:40.857Z,48.18
2023-03-29T07:16:39.089Z,49.31
2023-03-29T07:17:39.668Z,48.50
2023-03-29T07:18:39.699Z,47.21
2023-03-29T07:19:39.667Z,59.30
2023-03-29T07:20:39.093Z,47.70
2023-03-29T07:21:39.588Z,46.25
2023-03-29T07:22:39.794Z,45.60
2023-03-29T07:23:39.641Z,45.28
2023-03-29T07:24:39.759Z,57.36
2023-03-29T07:25:38.910Z,55.59
2023-03-29T07:26:44.024Z,48.82
2023-03-29T07:27:39.597Z,46.41
2023-03-29T07:28:39.891Z,47.70
2023-03-29T07:29:39.747Z,48.34
2023-03-29T07:30:39.736Z,52.05
2023-03-29T07:31:38.863Z,54.79
2023-03-29T07:32:39.713Z,60.59
2023-03-29T07:33:39.868Z,58.49
2023-03-29T07:34:39.442Z,61.71
2023-03-29T07:35:39.641Z,62.68
2023-03-29T07:36:38.850Z,62.36
2023-03-29T07:37:40.210Z,67.68
2023-03-29T07:38:39.509Z,64.45
2023-03-29T07:39:39.611Z,63.00
2023-03-29T07:40:39.427Z,63.81
2023-03-29T07:41:39.574Z,70.90
2023-03-29T07:42:39.482Z,64.29
2023-03-29T07:43:39.543Z,64.13
2023-03-29T07:44:39.547Z,64.13
2023-03-29T07:45:39.612Z,64.61
2023-03-29T07:46:39.437Z,67.68
2023-03-29T07:47:38.778Z,65.10
2023-03-29T07:48:40.229Z,67.51
2023-03-29T07:49:39.252Z,65.10
2023-03-29T07:50:38.654Z,64.94
2023-03-29T07:51:39.346Z,69.45
2023-03-29T07:52:38.657Z,71.54
2023-03-29T07:53:39.238Z,72.35
2023-03-29T07:54:39.375Z,70.74
2023-03-29T07:55:39.235Z,63.33
2023-03-29T07:56:38.610Z,67.68
2023-03-29T07:57:39.306Z,58.65
2023-03-29T07:58:39.346Z,63.33
2023-03-29T07:59:39.299Z,63.81
2023-03-29T08:00:39.504Z,61.23
2023-03-29T08:01:39.233Z,61.39
2023-03-29T08:02:39.588Z,62.52
2023-03-29T08:03:39.320Z,58.17
2023-03-29T08:04:38.622Z,55.27
2023-03-29T08:05:41.735Z,63.97
2023-03-29T08:06:39.340Z,58.97
2023-03-29T08:07:39.323Z,60.10
2023-03-29T08:08:39.270Z,54.95
2023-03-29T08:09:39.433Z,62.68
2023-03-29T08:10:39.107Z,50.60
2023-03-29T08:11:39.225Z,51.24
2023-03-29T08:12:38.419Z,51.88
2023-03-29T08:13:39.819Z,50.92
2023-03-29T08:14:39.156Z,50.76
2023-03-29T08:15:39.544Z,51.72
2023-03-29T08:16:39.214Z,51.08
2023-03-29T08:17:39.228Z,60.59
2023-03-29T08:18:39.288Z,52.21
2023-03-29T08:19:38.397Z,51.40
2023-03-29T08:20:39.220Z,55.75
2023-03-29T08:21:39.018Z,53.82
2023-03-29T08:22:39.232Z,63.65
2023-03-29T08:23:38.371Z,59.46
2023-03-29T08:24:39.130Z,52.37
2023-03-29T08:25:38.916Z,52.85
2023-03-29T08:26:39.139Z,51.08
2023-03-29T08:27:39.120Z,58.49
2023-03-29T08:28:39.119Z,62.36
2023-03-29T08:29:39.148Z,61.55
2023-03-29T08:30:39.155Z,61.71
2023-03-29T08:31:39.052Z,61.71
2023-03-29T08:32:39.201Z,55.59
2023-03-29T08:33:38.988Z,53.50
2023-03-29T08:34:39.053Z,58.17
2023-03-29T08:35:38.232Z,55.11
2023-03-29T08:36:38.869Z,59.46
2023-03-29T08:37:39.031Z,59.30
2023-03-29T08:38:38.901Z,53.66
2023-03-29T08:39:38.983Z,55.91
2023-03-29T08:40:38.838Z,60.91
2023-03-29T08:41:38.964Z,59.30
2023-03-29T08:42:38.850Z,66.71
2023-03-29T08:43:39.003Z,70.09
2023-03-29T08:44:38.782Z,56.40
2023-03-29T08:45:38.988Z,59.62
2023-03-29T08:46:38.186Z,78.63
2023-03-29T08:47:38.881Z,76.38
2023-03-29T08:48:38.856Z,75.73
2023-03-29T08:49:38.893Z,77.02
2023-03-29T08:50:38.894Z,75.41
2023-03-29T08:51:38.916Z,80.57
2023-03-29T08:52:38.810Z,72.83
2023-03-29T08:53:38.672Z,78.31
2023-03-29T08:54:38.878Z,80.08
2023-03-29T08:55:38.629Z,67.35
2023-03-29T08:56:38.015Z,62.52
2023-03-29T08:57:38.538Z,62.68
2023-03-29T08:58:38.739Z,76.05
2023-03-29T08:59:38.618Z,68.96
2023-03-29T09:00:39.217Z,71.70
2023-03-29T09:01:38.096Z,64.78
2023-03-29T09:02:38.831Z,71.38
2023-03-29T09:03:38.978Z,81.05
2023-03-29T09:04:38.730Z,83.47
2023-03-29T09:05:38.669Z,82.34
2023-03-29T09:06:37.908Z,83.47
2023-03-29T09:07:39.330Z,73.32
2023-03-29T09:08:38.611Z,74.60
2023-03-29T09:09:38.640Z,73.32
2023-03-29T09:10:38.460Z,73.80
2023-03-29T09:11:38.589Z,73.80
2023-03-29T09:12:38.444Z,73.48
2023-03-29T09:13:38.800Z,68.16
2023-03-29T09:14:37.799Z,55.91
2023-03-29T09:15:38.678Z,59.62
2023-03-29T09:16:39.779Z,60.75
2023-03-29T09:17:38.595Z,60.26
2023-03-29T09:18:38.477Z,55.91
2023-03-29T09:19:38.577Z,60.59
2023-03-29T09:20:39.233Z,65.74
2023-03-29T09:21:38.586Z,60.75
2023-03-29T09:22:38.510Z,65.10
2023-03-29T09:23:38.289Z,58.97
2023-03-29T09:24:38.443Z,62.84
2023-03-29T09:25:50.815Z,61.39
2023-03-29T09:26:38.456Z,65.58
2023-03-29T09:27:38.397Z,71.38
2023-03-29T09:28:38.526Z,70.74
2023-03-29T09:29:38.357Z,68.64
2023-03-29T09:30:38.507Z,69.77
2023-03-29T09:31:38.304Z,71.70
2023-03-29T09:32:38.637Z,60.75
2023-03-29T09:33:38.327Z,61.55
2023-03-29T09:34:38.356Z,65.26
2023-03-29T09:35:38.349Z,63.33
2023-03-29T09:36:38.517Z,59.14
2023-03-29T09:37:38.361Z,60.91
2023-03-29T09:38:38.167Z,62.20
2023-03-29T09:39:37.524Z,59.78
2023-03-29T09:40:38.306Z,70.58
2023-03-29T09:41:38.329Z,62.84
2023-03-29T09:42:38.213Z,58.49
2023-03-29T09:43:38.338Z,71.70
2023-03-29T09:44:38.146Z,69.29
2023-03-29T09:45:38.369Z,72.51
2023-03-29T09:46:38.103Z,71.22
2023-03-29T09:47:38.331Z,63.81
2023-03-29T09:48:38.221Z,64.29
2023-03-29T09:49:38.322Z,66.55
2023-03-29T09:50:38.461Z,62.68
2023-03-29T09:51:38.204Z,60.42
2023-03-29T09:52:38.137Z,57.36
2023-03-29T09:53:38.140Z,54.79
2023-03-29T09:54:38.132Z,56.40
2023-03-29T09:55:38.025Z,67.68
2023-03-29T09:56:38.257Z,61.39
2023-03-29T09:57:37.998Z,72.19
2023-03-29T09:58:38.216Z,57.52
2023-03-29T09:59:37.952Z,68.64
2023-03-29T10:00:38.077Z,71.06
2023-03-29T10:01:38.073Z,69.61
2023-03-29T10:02:38.209Z,68.96
2023-03-29T10:03:38.027Z,68.96
2023-03-29T10:04:38.198Z,70.58
2023-03-29T10:05:37.858Z,71.06
2023-03-29T10:06:38.227Z,67.84
2023-03-29T10:07:37.269Z,60.75
2023-03-29T10:08:38.078Z,58.01
2023-03-29T10:09:37.969Z,59.94
2023-03-29T10:10:37.797Z,58.33
2023-03-29T10:11:38.290Z,60.42
2023-03-29T10:12:38.273Z,60.75
2023-03-29T10:13:38.098Z,60.42
2023-03-29T10:14:37.889Z,59.62
2023-03-29T10:15:37.975Z,65.42
2023-03-29T10:16:37.958Z,64.61
2023-03-29T10:17:38.152Z,62.68
2023-03-29T10:18:37.890Z,64.78
2023-03-29T10:19:38.264Z,65.10
2023-03-29T10:20:37.828Z,64.45
2023-03-29T10:21:38.052Z,60.42
2023-03-29T10:22:38.057Z,56.40
2023-03-29T10:23:37.935Z,59.46
2023-03-29T10:24:37.937Z,62.36
2023-03-29T10:25:38.778Z,58.65
2023-03-29T10:26:37.847Z,59.62
2023-03-29T10:27:37.871Z,66.71
2023-03-29T10:28:37.801Z,66.55
2023-03-29T10:29:37.722Z,71.54
2023-03-29T10:30:37.920Z,62.52
2023-03-29T10:31:37.802Z,61.07
2023-03-29T10:32:37.846Z,69.29
2023-03-29T10:33:37.761Z,60.26
2023-03-29T10:34:37.775Z,61.71
2023-03-29T10:35:37.727Z,70.58
2023-03-29T10:36:37.802Z,64.61
2023-03-29T10:37:37.701Z,60.10
2023-03-29T10:38:37.719Z,53.82
2023-03-29T10:39:37.643Z,59.78
2023-03-29T10:40:37.469Z,61.23
2023-03-29T10:41:37.713Z,58.01
2023-03-29T10:42:37.480Z,55.75
2023-03-29T10:43:37.675Z,55.75
2023-03-29T10:44:37.741Z,55.27
2023-03-29T10:45:37.770Z,57.20
2023-03-29T10:46:37.553Z,55.27
2023-03-29T10:47:37.798Z,56.40
2023-03-29T10:48:37.588Z,58.97
2023-03-29T10:49:37.631Z,57.52
2023-03-29T10:50:37.581Z,64.29
2023-03-29T10:51:37.590Z,63.16
2023-03-29T10:52:37.458Z,58.33
2023-03-29T10:53:37.633Z,56.72
2023-03-29T10:54:37.516Z,64.78
2023-03-29T10:55:37.358Z,63.16
2023-03-29T10:56:38.049Z,62.84
2023-03-29T10:57:37.528Z,62.68
2023-03-29T10:58:37.514Z,62.20
2023-03-29T10:59:37.517Z,51.40
2023-03-29T11:00:37.518Z,65.58
2023-03-29T11:01:37.392Z,52.21
2023-03-29T11:02:37.875Z,53.82
2023-03-29T11:03:37.418Z,52.85
2023-03-29T11:04:38.458Z,52.53
2023-03-29T11:05:37.527Z,53.98
2023-03-29T11:06:37.466Z,51.24
2023-03-29T11:07:37.357Z,52.85
2023-03-29T11:08:37.404Z,52.37
2023-03-29T11:09:37.656Z,61.87
2023-03-29T11:10:37.200Z,60.91
2023-03-29T11:11:37.428Z,62.20
2023-03-29T11:12:37.171Z,66.71
2023-03-29T11:13:37.376Z,61.07
2023-03-29T11:14:37.194Z,67.19
2023-03-29T11:15:37.394Z,66.71
2023-03-29T11:16:37.171Z,67.03
2023-03-29T11:17:37.443Z,74.77
2023-03-29T11:18:37.208Z,65.58
2023-03-29T11:19:37.254Z,73.96
2023-03-29T11:20:37.205Z,77.18
2023-03-29T11:21:37.266Z,65.74
2023-03-29T11:22:37.175Z,57.36
2023-03-29T11:23:37.296Z,63.81
2023-03-29T11:24:37.550Z,60.42
2023-03-29T11:25:37.212Z,61.55
2023-03-29T11:26:37.319Z,59.62
2023-03-29T11:27:37.073Z,69.29
2023-03-29T11:28:37.165Z,61.07
2023-03-29T11:29:37.066Z,63.49
2023-03-29T11:30:37.188Z,76.86
2023-03-29T11:31:38.746Z,77.83
2023-03-29T11:32:37.195Z,69.61
2023-03-29T11:33:37.075Z,68.64
2023-03-29T11:34:37.489Z,73.48
2023-03-29T11:35:37.121Z,73.15
2023-03-29T11:36:37.219Z,60.91
2023-03-29T11:37:37.092Z,61.07
2023-03-29T11:38:37.095Z,77.99
2023-03-29T11:39:37.196Z,67.03
2023-03-29T11:40:37.076Z,61.55
2023-03-29T11:41:37.006Z,65.10
2023-03-29T11:42:37.366Z,72.51
2023-03-29T11:43:37.042Z,63.65
2023-03-29T11:44:36.836Z,79.28
2023-03-29T11:45:37.068Z,67.35
2023-03-29T11:46:36.909Z,72.19
2023-03-29T11:47:37.051Z,72.67
2023-03-29T11:48:36.935Z,57.85
2023-03-29T11:49:36.996Z,57.85
2023-03-29T11:50:37.010Z,57.04
2023-03-29T11:51:37.077Z,58.33
2023-03-29T11:52:36.974Z,68.16
2023-03-29T11:53:36.980Z,61.55
2023-03-29T11:54:36.924Z,63.33
2023-03-29T11:55:36.990Z,64.29
2023-03-29T11:56:36.902Z,66.87
2023-03-29T11:57:36.883Z,63.49
2023-03-29T11:58:39.030Z,65.74
2023-03-29T11:59:36.748Z,63.81
2023-03-29T12:00:36.864Z,59.14
2023-03-29T12:01:36.835Z,57.85
2023-03-29T12:02:36.965Z,59.62
2023-03-29T12:03:37.007Z,52.05
2023-03-29T12:04:36.845Z,74.60
2023-03-29T12:05:36.732Z,72.67
2023-03-29T12:06:36.808Z,75.09
2023-03-29T12:07:36.803Z,58.17
2023-03-29T12:08:36.888Z,63.97
2023-03-29T12:09:37.026Z,57.36
2023-03-29T12:10:36.869Z,57.20
2023-03-29T12:11:36.957Z,58.01
2023-03-29T12:12:36.855Z,57.85
2023-03-29T12:13:35.999Z,55.59
2023-03-29T12:14:36.575Z,57.85
2023-03-29T12:15:36.787Z,51.72
2023-03-29T12:16:36.829Z,50.11
2023-03-29T12:17:36.856Z,49.47
2023-03-29T12:18:36.576Z,48.34
2023-03-29T12:19:40.261Z,56.24
2023-03-29T12:20:35.933Z,52.53
2023-03-29T12:21:36.695Z,63.65
2023-03-29T12:22:37.127Z,53.50
2023-03-29T12:23:36.693Z,59.46
2023-03-29T12:24:36.596Z,57.85
2023-03-29T12:25:36.671Z,70.74
2023-03-29T12:26:36.947Z,58.01
2023-03-29T12:27:36.417Z,58.33
2023-03-29T12:28:36.499Z,58.97
2023-03-29T12:29:36.399Z,57.69
2023-03-29T12:30:36.524Z,60.26
2023-03-29T12:31:36.499Z,56.88
2023-03-29T12:32:36.695Z,57.85
2023-03-29T12:33:36.470Z,55.91
2023-03-29T12:34:36.509Z,55.91
2023-03-29T12:35:36.445Z,51.88
2023-03-29T12:36:36.547Z,53.50
2023-03-29T12:37:36.377Z,52.21
2023-03-29T12:38:36.501Z,52.69
2023-03-29T12:39:36.416Z,66.55
2023-03-29T12:40:36.390Z,57.20
2023-03-29T12:41:36.472Z,57.20
2023-03-29T12:42:36.232Z,56.40
2023-03-29T12:43:36.491Z,73.80
2023-03-29T12:44:36.211Z,54.79
2023-03-29T12:45:36.374Z,55.59
2023-03-29T12:46:36.305Z,74.93
2023-03-29T12:47:36.409Z,57.52
2023-03-29T12:48:37.039Z,63.65
2023-03-29T12:49:36.396Z,57.85
2023-03-29T12:50:36.302Z,58.81
2023-03-29T12:51:36.385Z,63.33
2023-03-29T12:52:36.256Z,57.36